Time;durP1;ratioP1;P1;durP2;ratioP2;P2;SDS_P1;SDS_P2;PMS_P1;PMS_P2;Temp;Humidity;BMP_temperature;BMP_pressure;BME280_temperature;BME280_humidity;BME280_pressure;Samples;Min_cycle;Max_cycle;Signal;HPM_P1;HPM_P2
2022/09/02 00:01:44;;;;;;;4.05;1.00;;;;;;;19.78;43.25;101690.09;5074429;28;20032;-45
2022/09/02 00:04:15;;;;;;;3.33;1.50;;;;;;;19.75;43.31;101680.50;5073545;28;20366;-49
2022/09/02 00:06:42;;;;;;;4.10;1.20;;;;;;;19.68;43.72;101686.56;5075172;28;20051;-48
2022/09/02 00:09:10;;;;;;;3.42;1.40;;;;;;;19.62;43.51;101685.66;5077440;28;20039;-45
2022/09/02 00:11:37;;;;;;;3.38;1.00;;;;;;;19.63;43.41;101690.00;5076556;28;20020;-46
2022/09/02 00:14:10;;;;;;;2.88;1.20;;;;;;;19.61;43.71;101691.75;5072174;28;20119;-47
2022/09/02 00:16:36;;;;;;;3.40;0.95;;;;;;;19.63;43.75;101683.06;5072992;28;20093;-45
2022/09/02 00:19:03;;;;;;;2.78;0.90;;;;;;;19.50;43.94;101678.63;5065690;28;20051;-48
2022/09/02 00:21:31;;;;;;;5.32;1.10;;;;;;;19.45;43.87;101690.78;5068208;28;20036;-47
2022/09/02 00:23:56;;;;;;;3.55;0.93;;;;;;;19.46;44.14;101677.72;5070698;28;20025;-48
2022/09/02 00:26:22;;;;;;;2.65;1.00;;;;;;;19.41;44.24;101681.19;5074387;28;20440;-47
2022/09/02 00:28:47;;;;;;;5.28;1.20;;;;;;;19.41;44.32;101678.56;5075313;28;20055;-49
2022/09/02 00:31:13;;;;;;;3.10;1.10;;;;;;;19.37;44.34;101676.84;5073659;28;20031;-47
2022/09/02 00:33:39;;;;;;;3.17;1.00;;;;;;;19.28;44.56;101675.03;5076549;28;20488;-49
2022/09/02 00:36:05;;;;;;;2.80;1.00;;;;;;;19.35;44.26;101678.53;5072328;28;20085;-50
2022/09/02 00:38:32;;;;;;;5.03;1.10;;;;;;;19.24;44.47;101674.16;5077607;28;20051;-45
2022/09/02 00:40:59;;;;;;;4.55;0.95;;;;;;;19.29;44.55;101671.56;5076288;28;20024;-49
2022/09/02 00:43:38;;;;;;;2.97;1.05;;;;;;;19.35;44.39;101665.50;5076210;28;20050;-47
2022/09/02 00:46:04;;;;;;;5.82;1.20;;;;;;;19.16;44.77;101665.41;5075374;28;20495;-47
2022/09/02 00:48:30;;;;;;;6.72;1.13;;;;;;;19.17;44.64;101663.66;5074428;28;20036;-50
2022/09/02 00:50:56;;;;;;;3.53;1.02;;;;;;;19.16;44.73;101670.63;5072794;28;20111;-47
2022/09/02 00:53:21;;;;;;;2.88;1.20;;;;;;;19.15;44.67;101661.06;5076243;28;20166;-47
2022/09/02 00:55:49;;;;;;;1.95;1.00;;;;;;;19.14;44.79;101655.84;5071696;28;20029;-46
2022/09/02 00:58:31;;;;;;;2.63;1.00;;;;;;;19.21;44.69;101662.84;5070288;28;20123;-49
2022/09/02 01:00:58;;;;;;;2.80;1.00;;;;;;;19.22;44.74;101659.34;5071872;28;20032;-46
2022/09/02 01:03:28;;;;;;;3.30;1.02;;;;;;;19.18;44.70;101660.22;5073945;28;20096;-46
2022/09/02 01:05:56;;;;;;;4.68;1.23;;;;;;;19.18;44.76;101658.50;5069319;28;20077;-50
2022/09/02 01:08:24;;;;;;;1.80;0.98;;;;;;;19.14;44.90;101661.94;5073777;28;20036;-50
2022/09/02 01:10:51;;;;;;;3.42;0.95;;;;;;;19.15;44.69;101657.59;5073136;28;20028;-48
2022/09/02 01:13:23;;;;;;;3.17;0.95;;;;;;;19.18;44.87;101655.88;5074202;28;20024;-48
2022/09/02 01:15:54;;;;;;;3.35;1.20;;;;;;;19.19;45.00;101651.53;5076498;28;20645;-49
2022/09/02 01:18:24;;;;;;;4.90;1.08;;;;;;;19.13;44.91;101652.38;5071144;28;20060;-50
2022/09/02 01:20:51;;;;;;;2.92;1.05;;;;;;;19.08;45.47;101650.59;5073003;28;20139;-48
2022/09/02 01:23:17;;;;;;;3.75;1.15;;;;;;;18.98;45.16;101653.13;5072615;28;20085;-48
2022/09/02 01:25:43;;;;;;;7.03;1.70;;;;;;;18.96;45.29;101649.66;5074745;28;20024;-49
2022/09/02 01:28:13;;;;;;;2.80;1.17;;;;;;;18.93;45.58;101654.00;5076391;28;20116;-49
2022/09/02 01:30:41;;;;;;;4.50;1.10;;;;;;;18.98;45.80;101647.94;5072295;28;20499;-48
2022/09/02 01:33:08;;;;;;;5.75;1.15;;;;;;;18.92;45.63;101652.22;5071901;28;20024;-47
2022/09/02 01:35:33;;;;;;;3.63;1.10;;;;;;;18.94;45.30;101655.75;5072350;28;20032;-49
2022/09/02 01:38:00;;;;;;;5.07;1.30;;;;;;;18.93;45.39;101648.78;5075950;28;20496;-50
2022/09/02 01:40:28;;;;;;;3.83;1.17;;;;;;;18.95;45.58;101636.63;5074698;28;20082;-49
2022/09/02 01:42:58;;;;;;;4.35;1.27;;;;;;;18.87;45.59;101648.72;5070421;28;20078;-45
2022/09/02 01:45:24;;;;;;;5.32;1.10;;;;;;;18.83;45.58;101636.56;5077342;28;20035;-46
2022/09/02 01:47:50;;;;;;;7.82;1.40;;;;;;;18.69;45.95;101645.16;5070383;28;20040;-49
2022/09/02 01:50:15;;;;;;;2.22;1.10;;;;;;;18.70;45.96;101638.22;5072719;28;20106;-49
2022/09/02 01:52:41;;;;;;;3.88;1.20;;;;;;;18.73;46.01;101636.47;5072651;28;20042;-46
2022/09/02 01:55:08;;;;;;;3.80;1.30;;;;;;;18.75;45.67;101645.19;5071424;28;20032;-49
2022/09/02 01:57:33;;;;;;;4.40;1.13;;;;;;;18.69;45.79;101639.94;5070339;28;20060;-49
2022/09/02 02:00:00;;;;;;;3.17;1.40;;;;;;;18.74;46.13;101635.63;5074083;28;20036;-47
2022/09/02 02:02:26;;;;;;;3.50;1.17;;;;;;;18.69;45.91;101639.94;5071732;28;20032;-46
2022/09/02 02:04:52;;;;;;;4.55;1.10;;;;;;;18.65;45.91;101632.94;5072362;28;20545;-50
2022/09/02 02:07:19;;;;;;;4.78;1.27;;;;;;;18.62;46.04;101634.63;5069159;28;20423;-50
2022/09/02 02:09:45;;;;;;;3.67;1.23;;;;;;;18.57;46.38;101644.16;5074415;28;20029;-49
2022/09/02 02:12:10;;;;;;;5.57;1.40;;;;;;;18.59;46.08;101632.88;5074226;28;20526;-49
2022/09/02 02:14:36;;;;;;;2.15;1.20;;;;;;;18.57;46.32;101631.16;5071928;28;20033;-46
2022/09/02 02:17:02;;;;;;;3.58;1.40;;;;;;;18.55;46.60;101635.44;5075420;28;20032;-50
2022/09/02 02:19:28;;;;;;;6.20;1.30;;;;;;;18.57;46.29;101631.16;5073020;28;20058;-50
2022/09/02 02:21:54;;;;;;;4.25;1.40;;;;;;;18.53;46.10;101631.97;5069217;28;20036;-49
2022/09/02 02:24:19;;;;;;;2.67;1.00;;;;;;;18.44;46.22;101627.53;5068940;28;20070;-50
2022/09/02 02:26:45;;;;;;;1.67;1.08;;;;;;;18.51;46.45;101631.97;5066789;28;20060;-49
2022/09/02 02:29:11;;;;;;;6.32;1.15;;;;;;;18.54;46.57;101625.91;5072713;28;20060;-48
2022/09/02 02:31:37;;;;;;;6.30;1.20;;;;;;;18.53;46.55;101624.16;5071010;28;20383;-49
2022/09/02 02:34:03;;;;;;;8.02;1.30;;;;;;;18.51;46.19;101631.09;5076674;28;20032;-50
2022/09/02 02:36:28;;;;;;;2.40;1.23;;;;;;;18.47;46.66;101628.44;5073708;28;20082;-48
2022/09/02 02:38:54;;;;;;;4.80;1.45;;;;;;;18.43;46.62;101618.88;5076014;28;20462;-47
2022/09/02 02:41:19;;;;;;;4.65;1.20;;;;;;;18.37;46.77;101626.63;5071176;28;20480;-47
2022/09/02 02:43:46;;;;;;;4.38;1.60;;;;;;;18.36;46.50;101621.41;5070370;28;20058;-49
2022/09/02 02:46:12;;;;;;;3.60;1.48;;;;;;;18.31;46.89;101628.31;5071924;28;20105;-47
2022/09/02 02:48:38;;;;;;;3.63;1.30;;;;;;;18.33;46.86;101614.47;5071040;28;20035;-47
2022/09/02 02:51:04;;;;;;;4.07;1.35;;;;;;;18.20;46.80;101616.09;5075989;28;20036;-50
2022/09/02 02:53:30;;;;;;;1.58;1.30;;;;;;;18.21;46.63;101617.84;5076534;28;20016;-46
2022/09/02 02:55:59;;;;;;;4.07;1.73;;;;;;;18.23;46.95;101620.44;5072815;28;20058;-49
2022/09/02 02:58:25;;;;;;;4.35;1.40;;;;;;;18.26;47.13;101614.38;5071074;28;20134;-49
2022/09/02 03:00:50;;;;;;;6.65;1.58;;;;;;;18.28;46.70;101610.94;5070661;28;20116;-47
2022/09/02 03:03:18;;;;;;;4.68;1.48;;;;;;;18.20;46.88;101610.88;5074054;28;20429;-46
2022/09/02 03:05:44;;;;;;;5.25;1.40;;;;;;;18.22;46.96;101609.16;5068265;28;20512;-49
2022/09/02 03:08:10;;;;;;;3.65;1.55;;;;;;;18.28;46.78;101605.75;5075313;28;20028;-47
2022/09/02 03:10:37;;;;;;;2.83;1.52;;;;;;;18.26;47.17;101609.16;5076727;28;20036;-50
2022/09/02 03:13:03;;;;;;;2.13;1.30;;;;;;;18.25;47.09;101610.91;5073236;28;20052;-49
2022/09/02 03:15:29;;;;;;;3.95;1.20;;;;;;;18.20;47.17;101608.28;5069101;28;20035;-48
2022/09/02 03:17:56;;;;;;;3.92;1.35;;;;;;;18.18;47.12;101607.38;5069241;28;20033;-48
2022/09/02 03:20:22;;;;;;;5.05;1.30;;;;;;;18.19;47.13;101616.06;5071937;28;20036;-47
2022/09/02 03:22:49;;;;;;;4.88;1.40;;;;;;;18.18;47.39;101614.31;5071566;28;20492;-46
2022/09/02 03:25:19;;;;;;;2.67;1.40;;;;;;;18.14;47.33;101602.13;5076017;28;20024;-48
2022/09/02 03:27:45;;;;;;;4.03;1.23;;;;;;;18.09;47.18;101607.31;5067921;28;20032;-46
2022/09/02 03:30:14;;;;;;;3.72;1.30;;;;;;;18.03;47.36;101603.78;5071760;28;20048;-49
2022/09/02 03:32:39;;;;;;;;;;;;;;;18.29;46.70;101606.59;5073441;28;20031;-48
2022/09/02 03:35:07;;;;;;;2.72;1.60;;;;;;;18.12;47.38;101604.72;5070133;28;19912;-50
2022/09/02 03:37:33;;;;;;;3.97;1.40;;;;;;;18.09;47.46;101603.84;5069914;28;20028;-47
2022/09/02 03:40:05;;;;;;;4.45;1.20;;;;;;;18.12;47.49;101599.50;5070544;28;20032;-50
2022/09/02 03:42:30;;;;;;;4.28;1.30;;;;;;;18.08;47.62;101596.88;5072593;28;20021;-49
2022/09/02 03:44:56;;;;;;;4.13;1.17;;;;;;;18.06;47.52;101596.84;5068200;28;20036;-47
2022/09/02 03:47:22;;;;;;;3.40;1.60;;;;;;;17.96;47.79;101595.06;5070158;28;20428;-49
2022/09/02 03:49:48;;;;;;;8.60;1.63;;;;;;;17.98;47.76;101595.94;5067768;28;20664;-46
2022/09/02 03:52:13;;;;;;;5.60;1.50;;;;;;;17.97;47.90;101598.53;5073695;28;20024;-50
2022/09/02 03:54:39;;;;;;;5.00;1.25;;;;;;;17.92;47.97;101588.94;5070658;28;20617;-49
2022/09/02 03:57:04;;;;;;;5.43;1.55;;;;;;;17.94;47.90;101594.16;5069715;28;20521;-46
2022/09/02 03:59:30;;;;;;;4.07;1.60;;;;;;;17.86;48.34;101593.22;5068417;28;20032;-50
2022/09/02 04:01:55;;;;;;;3.85;1.42;;;;;;;17.80;48.57;101586.22;5074871;28;20110;-46
2022/09/02 04:04:21;;;;;;;2.75;1.40;;;;;;;17.84;48.47;101585.41;5069508;28;20077;-49
2022/09/02 04:06:47;;;;;;;6.78;1.50;;;;;;;17.86;48.13;101585.41;5070308;28;20035;-50
2022/09/02 04:09:12;;;;;;;2.75;1.30;;;;;;;17.89;48.47;101582.81;5070835;28;20164;-48
2022/09/02 04:11:41;;;;;;;3.78;1.45;;;;;;;17.86;48.21;101582.81;5067125;28;20031;-50
2022/09/02 04:14:07;;;;;;;2.80;1.40;;;;;;;17.86;48.39;101582.81;5072973;28;20020;-47
2022/09/02 04:16:34;;;;;;;4.30;1.73;;;;;;;17.82;48.30;101586.22;5073944;28;20435;-50
2022/09/02 04:19:00;;;;;;;4.85;1.48;;;;;;;17.80;48.53;101581.00;5076073;28;20548;-47
2022/09/02 04:21:27;;;;;;;3.55;1.30;;;;;;;17.79;48.48;101575.81;5073497;28;20020;-47
2022/09/02 04:23:52;;;;;;;4.95;1.60;;;;;;;17.77;48.45;101569.69;5075864;28;20064;-49
2022/09/02 04:26:20;;;;;;;3.75;1.40;;;;;;;17.80;48.66;101577.53;5074025;28;20489;-49
2022/09/02 04:28:47;;;;;;;4.30;1.45;;;;;;;17.82;48.59;101573.22;5077605;28;20037;-50
2022/09/02 04:31:15;;;;;;;4.85;1.58;;;;;;;17.79;48.66;101575.81;5072895;28;20044;-54
2022/09/02 04:33:41;;;;;;;5.73;1.70;;;;;;;17.82;48.70;101570.63;5073658;28;20027;-50
2022/09/02 04:36:09;;;;;;;6.80;1.55;;;;;;;17.78;48.92;101576.66;5076421;28;20286;-47
2022/09/02 04:38:35;;;;;;;3.60;1.60;;;;;;;17.77;49.25;101562.75;5077219;28;20076;-46
2022/09/02 04:41:05;;;;;;;4.60;1.45;;;;;;;17.78;48.77;101563.66;5071839;28;20423;-47
2022/09/02 04:43:30;;;;;;;5.20;2.10;;;;;;;17.76;48.84;101563.63;5071803;28;20135;-50
2022/09/02 04:45:56;;;;;;;6.30;1.50;;;;;;;17.75;48.92;101566.22;5072463;28;20441;-45
2022/09/02 04:48:22;;;;;;;2.50;1.70;;;;;;;17.77;48.78;101570.56;5072336;28;20085;-49
2022/09/02 04:50:48;;;;;;;6.82;1.67;;;;;;;17.75;48.95;101571.41;5072705;28;20036;-49
2022/09/02 04:53:14;;;;;;;4.50;1.58;;;;;;;17.66;48.86;101573.06;5073173;28;20034;-49
2022/09/02 04:55:41;;;;;;;2.88;1.65;;;;;;;17.65;49.26;101570.41;5073459;28;20613;-50
2022/09/02 04:58:07;;;;;;;3.63;1.60;;;;;;;17.63;49.38;101567.81;5076403;28;20109;-46
2022/09/02 05:00:32;;;;;;;3.70;1.65;;;;;;;17.56;49.44;101567.72;5071960;28;20043;-50
2022/09/02 05:02:58;;;;;;;5.88;1.60;;;;;;;17.42;49.80;101567.59;5074127;28;20040;-49
2022/09/02 05:05:23;;;;;;;3.67;1.52;;;;;;;17.49;49.60;101572.00;5076319;28;20043;-47
2022/09/02 05:07:49;;;;;;;5.10;1.67;;;;;;;17.49;50.11;101569.41;5070916;28;20693;-49
2022/09/02 05:10:15;;;;;;;4.47;1.60;;;;;;;17.54;50.27;101566.84;5073796;28;20406;-49
2022/09/02 05:12:41;;;;;;;5.15;1.85;;;;;;;17.57;49.49;101569.47;5073865;28;20500;-49
2022/09/02 05:15:08;;;;;;;5.63;1.75;;;;;;;17.58;49.55;101574.69;5074469;28;20179;-49
2022/09/02 05:17:35;;;;;;;9.48;1.70;;;;;;;17.54;49.75;101570.31;5071922;28;20377;-50
2022/09/02 05:20:03;;;;;;;6.28;1.63;;;;;;;17.57;49.95;101570.34;5070496;28;20388;-49
2022/09/02 05:22:28;;;;;;;7.35;2.00;;;;;;;17.61;49.65;101563.44;5073004;28;20111;-50
2022/09/02 05:24:54;;;;;;;5.53;1.80;;;;;;;17.57;49.81;101575.53;5073930;28;20122;-49
2022/09/02 05:27:22;;;;;;;7.57;2.20;;;;;;;17.51;50.20;101569.41;5072184;28;20032;-48
2022/09/02 05:29:47;;;;;;;3.78;1.75;;;;;;;17.55;50.19;101573.78;5077650;28;20511;-45
2022/09/02 05:32:13;;;;;;;8.50;1.90;;;;;;;17.57;50.13;101578.13;5071890;28;20024;-50
2022/09/02 05:34:38;;;;;;;4.40;1.80;;;;;;;17.56;50.09;101570.31;5077104;28;20040;-50
2022/09/02 05:37:04;;;;;;;4.65;1.67;;;;;;;17.56;50.12;101578.13;5076266;28;20496;-49
2022/09/02 05:39:29;;;;;;;8.32;2.05;;;;;;;17.61;50.02;101573.84;5078365;28;20146;-47
2022/09/02 05:41:55;;;;;;;6.53;2.38;;;;;;;17.61;49.96;101574.72;5071862;28;20036;-48
2022/09/02 05:44:20;;;;;;;3.67;1.98;;;;;;;17.61;49.98;101572.13;5072892;28;20418;-48
2022/09/02 05:46:46;;;;;;;4.22;2.00;;;;;;;17.58;50.15;101573.81;5072131;28;20051;-50
2022/09/02 05:49:16;;;;;;;3.58;2.15;;;;;;;17.57;50.24;101577.28;5075273;28;20077;-49
2022/09/02 05:51:47;;;;;;;8.15;2.10;;;;;;;17.60;50.29;101578.19;5077196;28;20032;-49
2022/09/02 05:54:34;;;;;;;5.18;2.25;;;;;;;17.69;50.16;101580.00;5080128;28;20028;-50
2022/09/02 05:57:10;;;;;;;7.10;2.08;;;;;;;17.63;50.41;101573.00;5073807;28;20500;-48
2022/09/02 05:59:41;;;;;;;10.75;2.38;;;;;;;17.59;50.62;101567.75;5075021;28;20036;-49
2022/09/02 06:02:07;;;;;;;4.85;2.20;;;;;;;17.60;50.64;101577.31;5074871;28;20024;-46
2022/09/02 06:04:39;;;;;;;4.57;2.20;;;;;;;17.62;50.51;101576.47;5074574;28;20054;-50
2022/09/02 06:07:05;;;;;;;4.65;1.92;;;;;;;17.58;50.65;101574.69;5074095;28;20512;-49
2022/09/02 06:09:31;;;;;;;11.32;2.20;;;;;;;17.64;50.83;101564.34;5074988;28;20047;-53
2022/09/02 06:11:57;;;;;;;8.20;2.22;;;;;;;17.65;50.69;101575.59;5072613;28;20020;-48
2022/09/02 06:14:24;;;;;;;6.70;1.85;;;;;;;17.70;50.65;101568.72;5072339;28;20036;-51
2022/09/02 06:16:52;;;;;;;6.40;2.00;;;;;;;17.72;50.25;101563.59;5075103;28;20059;-47
2022/09/02 06:19:17;;;;;;;5.28;1.90;;;;;;;17.69;50.84;101574.78;5076603;28;20097;-46
2022/09/02 06:21:43;;;;;;;5.63;1.80;;;;;;;17.69;50.81;101573.06;5070855;28;22140;-47
2022/09/02 06:24:10;;;;;;;6.63;2.15;;;;;;;17.72;50.86;101561.88;5071896;28;20111;-50
2022/09/02 06:26:37;;;;;;;4.90;1.73;;;;;;;17.72;50.69;101571.41;5073536;28;20047;-50
2022/09/02 06:29:04;;;;;;;5.53;2.00;;;;;;;17.74;50.88;101567.06;5072455;28;20036;-50
2022/09/02 06:31:29;;;;;;;5.13;1.60;;;;;;;17.74;51.06;101575.75;5070903;28;20024;-49
2022/09/02 06:33:56;;;;;;;6.05;2.10;;;;;;;17.76;50.82;101570.56;5070717;28;20036;-49
2022/09/02 06:36:23;;;;;;;7.00;2.00;;;;;;;17.77;50.70;101567.97;5078475;28;20029;-49
2022/09/02 06:38:51;;;;;;;5.57;1.80;;;;;;;17.78;50.95;101568.88;5074010;28;20054;-50
2022/09/02 06:41:22;;;;;;;7.45;1.92;;;;;;;17.84;51.33;101568.94;5071499;28;20032;-50
2022/09/02 06:43:49;;;;;;;8.90;1.90;;;;;;;17.81;51.08;101561.94;5075373;28;20032;-48
2022/09/02 06:46:21;;;;;;;6.45;1.98;;;;;;;17.86;50.82;101562.00;5076993;28;20020;-50
2022/09/02 06:48:48;;;;;;;4.90;1.88;;;;;;;17.86;51.53;101562.00;5073948;28;20051;-49
2022/09/02 06:51:41;;;;;;;9.10;1.90;;;;;;;17.95;50.68;101564.66;5081346;28;20035;-49
2022/09/02 06:54:10;;;;;;;5.35;1.70;;;;;;;17.88;51.12;101555.94;5077435;28;20046;-51
2022/09/02 06:56:36;;;;;;;5.78;1.85;;;;;;;17.90;51.13;101563.78;5078845;28;20104;-48
2022/09/02 06:59:04;;;;;;;4.95;1.63;;;;;;;17.92;51.25;101557.72;5072238;28;20047;-50
2022/09/02 07:01:31;;;;;;;5.68;1.90;;;;;;;17.95;50.99;101554.25;5080162;28;20540;-50
2022/09/02 07:06:43;;;;;;;4.18;2.10;;;;;;;18.02;51.03;101553.47;5076346;28;20059;-49
2022/09/02 07:09:11;;;;;;;11.40;1.90;;;;;;;18.07;50.83;101554.34;5075501;28;20024;-49
2022/09/02 07:11:37;;;;;;;7.47;1.90;;;;;;;18.04;51.17;101556.94;5073987;28;20028;-47
2022/09/02 07:14:03;;;;;;;8.82;1.60;;;;;;;18.09;51.24;101551.78;5076991;28;20042;-48
2022/09/02 07:16:32;;;;;;;5.43;1.75;;;;;;;18.10;51.14;101546.59;5080003;28;20036;-49
2022/09/02 07:19:00;;;;;;;6.50;2.25;;;;;;;18.15;50.77;101551.84;5080668;28;20226;-51
2022/09/02 07:21:27;;;;;;;5.03;2.22;;;;;;;18.17;50.65;101543.16;5073117;28;20067;-47
2022/09/02 07:23:54;;;;;;;7.55;2.55;;;;;;;18.17;51.11;101553.59;5074247;28;20036;-49
2022/09/02 07:26:19;;;;;;;8.55;2.53;;;;;;;18.22;50.70;101551.88;5072763;28;20484;-50
2022/09/02 07:28:45;;;;;;;7.88;3.20;;;;;;;18.30;51.33;101545.88;5069607;28;20048;-51
2022/09/02 07:31:13;;;;;;;9.30;3.33;;;;;;;18.34;50.95;101553.72;5075996;28;20111;-47
2022/09/02 07:33:39;;;;;;;11.00;3.30;;;;;;;18.37;51.05;101545.91;5072163;28;20035;-48
2022/09/02 07:36:05;;;;;;;9.27;3.20;;;;;;;18.39;50.96;101543.34;5080716;28;20120;-49
2022/09/02 07:38:32;;;;;;;8.77;3.00;;;;;;;18.42;50.95;101544.22;5076854;28;20439;-47
2022/09/02 07:40:59;;;;;;;6.40;2.80;;;;;;;18.46;51.01;101542.50;5072709;28;20464;-50
2022/09/02 07:43:26;;;;;;;9.45;2.90;;;;;;;18.45;50.83;101540.78;5072317;28;20123;-51
2022/09/02 07:45:54;;;;;;;9.38;3.63;;;;;;;18.52;50.83;101539.94;5073901;28;20504;-50
2022/09/02 07:48:20;;;;;;;12.40;3.30;;;;;;;18.55;50.76;101537.34;5072825;28;20115;-50
2022/09/02 07:50:46;;;;;;;13.55;3.15;;;;;;;18.59;50.62;101546.94;5076159;28;20115;-50
2022/09/02 07:53:12;;;;;;;7.18;2.63;;;;;;;18.62;50.72;101536.50;5075025;28;20030;-50
2022/09/02 07:55:40;;;;;;;8.43;2.88;;;;;;;18.64;50.61;101546.97;5074340;28;20028;-50
2022/09/02 07:58:05;;;;;;;13.02;3.00;;;;;;;18.69;50.79;101545.28;5070692;28;20040;-49
2022/09/02 08:00:31;;;;;;;7.72;3.03;;;;;;;18.69;50.71;101553.97;5077347;28;20412;-46
2022/09/02 08:02:57;;;;;;;10.48;3.00;;;;;;;18.70;50.57;101542.69;5070554;28;20031;-49
2022/09/02 08:05:23;;;;;;;8.60;3.30;;;;;;;18.72;50.63;101548.78;5071308;28;20449;-50
2022/09/02 08:07:48;;;;;;;8.65;3.40;;;;;;;18.73;50.75;101542.69;5072704;28;20462;-50
2022/09/02 08:10:14;;;;;;;10.23;3.20;;;;;;;18.78;50.76;101537.50;5079255;28;20028;-50
2022/09/02 08:12:40;;;;;;;12.20;3.88;;;;;;;18.82;50.58;101538.41;5075343;28;20052;-46
2022/09/02 08:15:07;;;;;;;10.35;3.45;;;;;;;18.84;50.33;101540.16;5071550;28;20127;-50
2022/09/02 08:17:32;;;;;;;13.50;4.03;;;;;;;18.86;50.89;101543.63;5074418;28;20381;-50
2022/09/02 08:19:58;;;;;;;9.75;3.42;;;;;;;18.91;50.65;101533.22;5071904;28;20081;-49
2022/09/02 08:22:24;;;;;;;10.10;4.07;;;;;;;18.95;51.03;101537.59;5070684;28;20054;-47
2022/09/02 08:24:50;;;;;;;10.90;3.33;;;;;;;18.98;51.18;101529.78;5064946;28;20048;-51
2022/09/02 08:27:15;;;;;;;6.68;2.63;;;;;;;19.05;50.95;101523.75;5071654;28;20037;-47
2022/09/02 08:29:41;;;;;;;7.22;3.20;;;;;;;19.11;51.38;101528.97;5080001;28;20036;-49
2022/09/02 08:32:07;;;;;;;8.32;2.97;;;;;;;19.16;51.13;101524.63;5073073;28;20024;-50
2022/09/02 08:34:32;;;;;;;10.15;2.95;;;;;;;19.20;50.77;101534.22;5080284;28;20040;-49
2022/09/02 08:36:57;;;;;;;8.65;3.00;;;;;;;19.29;50.76;101517.72;5072514;28;20036;-52
2022/09/02 08:39:24;;;;;;;8.35;2.90;;;;;;;19.33;50.36;101521.22;5076289;28;20032;-50
2022/09/02 08:42:06;;;;;;;13.48;3.35;;;;;;;19.40;50.81;101516.00;5076852;28;20400;-49
2022/09/02 08:44:35;;;;;;;7.30;3.10;;;;;;;19.47;50.71;101517.75;5079042;28;20028;-49
2022/09/02 08:47:03;;;;;;;9.23;3.20;;;;;;;19.51;50.87;101514.28;5079254;28;20055;-51
2022/09/02 08:49:34;;;;;;;10.65;3.63;;;;;;;19.57;50.59;101513.44;5085296;28;20021;-50
2022/09/02 08:52:02;;;;;;;13.60;3.22;;;;;;;19.63;50.56;101512.59;5080937;28;20016;-51
2022/09/02 08:54:34;;;;;;;6.78;3.00;;;;;;;19.71;50.67;101516.09;5075965;28;20107;-50
2022/09/02 08:56:59;;;;;;;11.15;3.83;;;;;;;19.75;50.57;101510.00;5073251;28;20028;-50
2022/09/02 08:59:30;;;;;;;9.40;2.90;;;;;;;19.82;50.73;101519.56;5074011;28;20062;-52
2022/09/02 09:02:01;;;;;;;7.93;3.30;;;;;;;19.88;50.37;101518.69;5079379;28;20031;-46
2022/09/02 09:04:42;;;;;;;10.10;3.20;;;;;;;19.93;50.44;101523.06;5075265;28;20481;-50
2022/09/02 09:07:10;;;;;;;7.50;3.30;;;;;;;19.99;50.33;101522.19;5074521;28;20077;-50
2022/09/02 09:10:10;;;;;;;15.97;3.47;;;;;;;20.11;50.83;101516.09;5073502;28;20032;-49
2022/09/02 09:12:39;;;;;;;9.73;3.50;;;;;;;20.14;49.86;101522.16;5071729;28;20067;-50
2022/09/02 09:15:19;;;;;;;15.32;4.25;;;;;;;20.20;50.18;101516.06;5072295;28;20361;-50
2022/09/02 09:17:56;;;;;;;12.20;4.95;;;;;;;20.27;49.91;101523.91;5070159;28;20064;-50
2022/09/02 09:20:27;;;;;;;12.95;4.70;;;;;;;20.29;49.81;101524.78;5076374;28;20077;-51
2022/09/02 09:22:59;;;;;;;14.75;3.60;;;;;;;20.33;50.14;101516.06;5073464;28;20029;-51
2022/09/02 09:25:28;;;;;;;8.63;2.92;;;;;;;20.38;50.04;101516.03;5074841;28;20044;-51
2022/09/02 09:28:00;;;;;;;8.38;3.25;;;;;;;20.44;49.92;101512.53;5071137;28;20032;-53
2022/09/02 09:30:27;;;;;;;11.50;3.25;;;;;;;20.47;50.34;101515.19;5072101;28;20477;-49
2022/09/02 09:33:00;;;;;;;11.63;3.22;;;;;;;20.50;50.46;101513.44;5068877;28;20108;-51
2022/09/02 09:35:27;;;;;;;9.80;3.10;;;;;;;20.56;49.92;101512.53;5070695;28;20020;-51
2022/09/02 09:37:54;;;;;;;8.75;3.22;;;;;;;20.63;50.02;101509.06;5071221;28;20380;-50
2022/09/02 09:40:22;;;;;;;11.38;3.50;;;;;;;20.68;50.01;101504.66;5077721;28;20031;-48
2022/09/02 09:42:54;;;;;;;7.47;3.50;;;;;;;20.74;49.32;101498.56;5071472;28;20396;-50
2022/09/02 09:45:31;;;;;;;8.77;3.78;;;;;;;20.80;49.33;101499.41;5069262;28;21016;-49
2022/09/02 09:48:22;;;;;;;8.30;4.13;;;;;;;20.88;49.30;101492.41;5072448;28;20032;-48
2022/09/02 09:51:12;;;;;;;7.80;4.05;;;;;;;20.94;49.22;101488.03;5071164;28;20020;-50
2022/09/02 09:53:38;;;;;;;8.73;4.20;;;;;;;21.02;49.08;101494.94;5075236;28;20028;-49
2022/09/02 09:56:26;;;;;;;14.05;5.30;;;;;;;21.07;48.18;101497.56;5073588;28;20489;-47
2022/09/02 09:58:51;;;;;;;11.63;5.47;;;;;;;21.12;48.11;101488.81;5074439;28;20052;-50
2022/09/02 10:01:20;;;;;;;13.30;5.05;;;;;;;21.19;47.90;101487.03;5071837;28;20033;-49
2022/09/02 10:03:56;;;;;;;12.48;5.75;;;;;;;21.24;47.68;101489.63;5070342;28;20056;-47
2022/09/02 10:06:32;;;;;;;9.95;5.63;;;;;;;21.33;47.37;101490.44;5069586;28;20028;-48
2022/09/02 10:09:02;;;;;;;10.55;5.43;;;;;;;21.43;47.50;101493.88;5062337;28;20135;-45
2022/09/02 10:11:30;;;;;;;13.52;4.93;;;;;;;21.49;47.36;101483.38;5070264;28;20465;-52
2022/09/02 10:14:09;;;;;;;15.23;5.90;;;;;;;21.57;47.66;101483.31;5074115;28;20491;-54
2022/09/02 10:16:53;;;;;;;12.40;4.85;;;;;;;21.68;47.58;101471.00;5069917;28;20033;-47
2022/09/02 10:19:33;;;;;;;14.57;5.10;;;;;;;21.78;47.51;101470.06;5070030;28;20029;-44
2022/09/02 10:22:10;;;;;;;11.05;5.03;;;;;;;21.90;46.51;101471.69;5066565;28;20028;-46
2022/09/02 10:25:08;;;;;;;12.70;4.30;;;;;;;22.00;46.98;101469.84;5067142;28;20028;-46
2022/09/02 10:27:53;;;;;;;10.00;4.80;;;;;;;22.11;46.48;101460.19;5043990;28;20501;-48
2022/09/02 10:30:23;;;;;;;13.88;4.82;;;;;;;22.21;45.73;101446.97;5073375;28;20294;-48
2022/09/02 10:33:09;;;;;;;11.07;4.60;;;;;;;22.31;45.75;101450.34;5064896;28;20077;-48
2022/09/02 10:35:40;;;;;;;11.88;4.88;;;;;;;22.45;45.69;101445.84;5074245;28;20436;-48
2022/09/02 10:38:21;;;;;;;12.38;5.07;;;;;;;22.56;44.98;101447.44;5072710;28;20388;-48
2022/09/02 10:40:56;;;;;;;11.63;4.80;;;;;;;22.62;44.43;101440.38;5071622;28;20032;-50
2022/09/02 10:43:59;;;;;;;20.48;5.03;;;;;;;22.73;44.75;101455.97;5076176;28;20031;-49
2022/09/02 10:46:25;;;;;;;14.23;5.88;;;;;;;22.83;42.82;101447.09;5072441;28;20039;-47
2022/09/02 10:49:20;;;;;;;12.82;5.72;;;;;;;22.90;42.93;101453.16;5071925;28;20036;-47
2022/09/02 10:52:02;;;;;;;11.25;5.93;;;;;;;22.94;42.88;101442.63;5063314;28;20118;-50
2022/09/02 10:54:46;;;;;;;11.82;5.22;;;;;;;23.10;42.57;101448.50;5074022;28;20035;-50
2022/09/02 10:57:22;;;;;;;7.20;4.30;;;;;;;23.25;42.02;101445.66;5074148;28;20028;-45
2022/09/02 10:59:57;;;;;;;12.90;4.50;;;;;;;23.35;41.95;101438.50;5075591;28;20033;-51
2022/09/02 11:02:29;;;;;;;12.98;4.40;;;;;;;23.62;42.10;101439.00;5075316;28;20036;-47
2022/09/02 11:05:07;;;;;;;9.32;4.10;;;;;;;23.87;41.56;101431.56;5072953;28;20055;-48
2022/09/02 11:07:42;;;;;;;8.23;4.05;;;;;;;24.04;40.23;101422.47;5071569;28;20035;-51
2022/09/02 11:10:11;;;;;;;10.65;4.22;;;;;;;24.33;37.70;101423.69;5070498;28;20028;-50
2022/09/02 11:13:01;;;;;;;9.98;4.50;;;;;;;24.59;36.89;101424.03;5075473;28;20472;-51
2022/09/02 11:15:42;;;;;;;10.52;4.53;;;;;;;24.91;36.77;101421.59;5075190;28;20493;-50
2022/09/02 11:18:22;;;;;;;9.60;4.13;;;;;;;25.21;36.05;101418.28;5079468;28;20025;-50
2022/09/02 11:21:09;;;;;;;9.40;4.30;;;;;;;25.49;36.16;101405.31;5075613;28;20067;-49
2022/09/02 11:23:45;;;;;;;9.57;3.55;;;;;;;25.67;35.63;101404.84;5074296;28;20477;-50
2022/09/02 11:26:28;;;;;;;3.65;2.05;;;;;;;25.88;34.30;101397.31;5077972;28;20155;-50
2022/09/02 11:29:11;;;;;;;4.82;2.05;;;;;;;26.12;33.73;101396.63;5074946;28;20543;-50
2022/09/02 11:31:57;;;;;;;7.38;2.20;;;;;;;26.35;34.09;101392.47;5078082;28;20508;-51
2022/09/02 11:34:33;;;;;;;8.55;2.97;;;;;;;26.46;32.93;101387.78;5078758;28;20123;-50
2022/09/02 11:37:07;;;;;;;6.32;3.08;;;;;;;26.54;31.89;101398.97;5076950;28;20065;-46